Ship Status Report: callsign WDJ3639

sailwx.info

Track history (hours):
 
Tides and Currents Weather Stations Pressure Air Temp Water Temp Dewpoint Dewpoint Depression Visibility Wind Speed Wind Dir Waves Ship Positions

Oceanographic research ship ()

Owner: Ocean Titan Holding, LLC, Seattle, WA. More information available from US FCC via Universal Licensing System and Coast Guard Vessel Documentation Center.

Last reported at 2018-Jan-12 04:08 UTC. Time now 2018-Feb-23 17:52 UTC.
Position N 48°18' W 124°57'.
Warning: this ship's position is 42 days out of date.

Length 60 m; draft 4.6 m.

Type: Cargo ship. MMSI: 369228000.

Date/timePositionNaut miles runAvg speedWind from/ knotsBaromVisibWave heightAir tempDewpointWater temp
2018-Jan-12 04:08N 48°18' W 124°57'1 4.1
2018-Jan-12 03:55N 48°19' W 124°56'2 4.2
2018-Jan-12 03:30N 48°20' W 124°54'3 6.7
2018-Jan-12 03:00N 48°23' W 124°51'5 9.7
2018-Jan-12 02:30N 48°26' W 124°45'611.8
2018-Jan-12 02:00N 48°23' W 124°37'0 0.5
2018-Jan-12 01:30N 48°23' W 124°37'0 0.0
2018-Jan-12 01:00N 48°23' W 124°37'0 0.0
2018-Jan-12 00:30N 48°23' W 124°37'0 0.0
2018-Jan-12 00:00N 48°23' W 124°37'0 0.0
2018-Jan-11 23:30N 48°23' W 124°37'0 0.0
2018-Jan-11 23:00N 48°23' W 124°37'0 0.0
2018-Jan-11 22:30N 48°23' W 124°37'0 0.0
2018-Jan-11 22:00N 48°23' W 124°37'0 0.2
2018-Jan-11 21:30N 48°23' W 124°37'0 0.9
2018-Jan-11 21:00N 48°23' W 124°37'3 6.2
2018-Jan-11 20:30N 48°25' W 124°41'4 8.7
2018-Jan-11 20:00N 48°25' W 124°48'510.0
2018-Jan-11 19:30N 48°21' W 124°53'16 1.8
2018-Jan-11 10:43N 48°10' W 125°10'  
2018-Jan-08 16:06N 48°30' W 124°60'2 9.1
2018-Jan-08 15:53N 48°31' W 124°57'4 9.6
2018-Jan-08 15:30N 48°31' W 124°51'5 9.4
2018-Jan-08 15:00N 48°30' W 124°44'4 8.8
2018-Jan-08 14:30N 48°30' W 124°38'4 8.6
2018-Jan-08 14:00N 48°28' W 124°32'5 9.6
2018-Jan-08 13:30N 48°26' W 124°25'510.3
2018-Jan-08 13:00N 48°24' W 124°18'510.1
2018-Jan-08 12:30N 48°22' W 124°11'510.1
2018-Jan-08 12:00N 48°20' W 124°04'510.6
2018-Jan-08 11:30N 48°18' W 123°56'511.0
2018-Jan-08 11:00N 48°17' W 123°48'612.2
2018-Jan-08 10:30N 48°16' W 123°39'612.9
2018-Jan-08 10:00N 48°15' W 123°30'612.6
2018-Jan-08 09:30N 48°14' W 123°20'612.4
2018-Jan-08 09:00N 48°14' W 123°11'612.4
2018-Jan-08 08:30N 48°13' W 123°02'712.7
2018-Jan-08 07:59N 48°12' W 122°52'712.8
2018-Jan-08 07:27N 48°09' W 122°43'712.5
2018-Jan-08 06:53N 48°03' W 122°38'513.0
2018-Jan-08 06:30N 47°59' W 122°35'611.9
2018-Jan-08 06:00N 47°54' W 122°29'612.0
2018-Jan-08 05:30N 47°48' W 122°27'5 9.8
2018-Jan-08 05:00N 47°44' W 122°29'1 2.0
2018-Jan-08 04:30N 47°44' W 122°31'2 3.5
2018-Jan-08 04:00N 47°43' W 122°28'0 0.2
2018-Jan-08 03:31N 47°43' W 122°28'0 0.5
2018-Jan-08 03:00N 47°42' W 122°28'0 0.3
2018-Jan-08 02:30N 47°43' W 122°28'0 0.2
2018-Jan-08 02:00N 47°43' W 122°28'0 0.0
2018-Jan-08 01:30N 47°43' W 122°28'0 0.4
2018-Jan-08 01:00N 47°43' W 122°28'1 2.2
2018-Jan-08 00:30N 47°42' W 122°27'3 5.6
2018-Jan-08 00:00N 47°40' W 122°24'0 0.5
2018-Jan-07 23:29N 47°40' W 122°24'0 0.0
2018-Jan-07 22:59N 47°40' W 122°24'0 0.0
2018-Jan-07 22:29N 47°40' W 122°24'0 0.0
2018-Jan-07 21:59N 47°40' W 122°24'0 0.0
2018-Jan-07 21:29N 47°40' W 122°24'0 0.0
2018-Jan-07 20:59N 47°40' W 122°24'0 0.0
2018-Jan-07 20:26N 47°40' W 122°24'0 0.0
2018-Jan-07 19:59N 47°40' W 122°24'0 0.0
2018-Jan-07 19:29N 47°40' W 122°24'0 0.0
2018-Jan-07 18:59N 47°40' W 122°24'0 0.0
2018-Jan-07 18:29N 47°40' W 122°24'0 0.0
2018-Jan-07 17:59N 47°40' W 122°24'0 0.0
2018-Jan-07 17:29N 47°40' W 122°24'0 0.0
2018-Jan-07 16:59N 47°40' W 122°24'0 0.0
2018-Jan-07 16:29N 47°40' W 122°24'0 0.0
2018-Jan-07 15:59N 47°40' W 122°24'0 0.0
2018-Jan-07 15:29N 47°40' W 122°24'9124.7
2018-Jan-07 11:47N 49°11' W 122°24'3 8.6
2018-Jan-07 11:29N 49°09' W 122°24'32 8.6
2018-Jan-07 07:47N 48°37' W 122°24'16 8.6
2018-Jan-07 05:56N 48°21' W 122°24'4 8.6
2018-Jan-07 05:29N 48°17' W 122°24'4 8.6
2018-Jan-07 04:59N 48°13' W 122°24'4 8.6
2018-Jan-07 04:29N 48°09' W 122°24'4 8.6
2018-Jan-07 03:59N 48°04' W 122°24'4 8.6
2018-Jan-07 03:29N 47°60' W 122°24'4 8.6
2018-Jan-07 02:59N 47°56' W 122°24'4 8.6
2018-Jan-07 02:29N 47°51' W 122°24'4 8.6
2018-Jan-07 01:59N 47°47' W 122°24'4 8.6
2018-Jan-07 01:29N 47°43' W 122°24'3 2.8
2018-Jan-07 00:29N 47°40' W 122°24'0 0.0
2018-Jan-06 23:59N 47°40' W 122°24'0 0.0
2018-Jan-06 23:29N 47°40' W 122°24'0 0.0
2018-Jan-06 22:59N 47°40' W 122°24'0 0.0
2018-Jan-06 22:29N 47°40' W 122°24'0 0.0
2018-Jan-06 21:59N 47°40' W 122°24'0 0.0
2018-Jan-06 21:29N 47°40' W 122°24'0 0.0
2018-Jan-06 20:59N 47°40' W 122°24'0 0.0
2018-Jan-06 20:29N 47°40' W 122°24'0 0.0
2018-Jan-06 19:59N 47°40' W 122°24'0 0.0
2018-Jan-06 19:29N 47°40' W 122°24'0 0.0
2018-Jan-06 18:59N 47°40' W 122°24'0 0.0
2018-Jan-06 18:29N 47°40' W 122°24'0 0.0
2018-Jan-06 17:59N 47°40' W 122°24'0 0.0
2018-Jan-06 17:29N 47°40' W 122°24'0 0.0
2018-Jan-06 16:59N 47°40' W 122°24'0 0.0
2018-Jan-06 16:29N 47°40' W 122°24'0 0.0
2018-Jan-06 15:59N 47°40' W 122°24'0 0.0
2018-Jan-06 15:29N 47°40' W 122°24'0 0.0
2018-Jan-06 14:59N 47°40' W 122°24'0 0.0
2018-Jan-06 14:29N 47°40' W 122°24'0 0.0
2018-Jan-06 13:59N 47°40' W 122°24'0 0.0
2018-Jan-06 13:29N 47°40' W 122°24'0 0.0
2018-Jan-06 12:59N 47°40' W 122°24'0 0.0
2018-Jan-06 12:29N 47°40' W 122°24'0 0.0
2018-Jan-06 11:58N 47°40' W 122°24'0 0.0
2018-Jan-06 11:28N 47°40' W 122°24'0 0.0
2018-Jan-06 10:58N 47°40' W 122°24'0 0.0
2018-Jan-06 10:28N 47°40' W 122°24'0 0.0
2018-Jan-06 09:58N 47°40' W 122°24'0 0.0
2018-Jan-06 09:28N 47°40' W 122°24'0 0.0
2018-Jan-06 08:58N 47°40' W 122°24'0 0.0
2018-Jan-06 08:28N 47°40' W 122°24'0 0.0
2018-Jan-06 07:58N 47°40' W 122°24'0 0.0
2018-Jan-06 07:28N 47°40' W 122°24'0 0.0
2018-Jan-06 06:58N 47°40' W 122°24'0 0.0
2018-Jan-06 06:28N 47°40' W 122°24'0 0.0
2018-Jan-06 05:58N 47°40' W 122°24'0 0.0
2018-Jan-06 05:28N 47°40' W 122°24'0 0.0
2018-Jan-06 04:58N 47°40' W 122°24'0 0.0
2018-Jan-06 04:25N 47°40' W 122°24'0 0.0
2018-Jan-06 03:58N 47°40' W 122°24'0 0.0
2018-Jan-06 03:28N 47°40' W 122°24'0 0.0
2018-Jan-06 02:58N 47°40' W 122°24'0 0.0
2018-Jan-06 02:28N 47°40' W 122°24'0 0.0
2018-Jan-06 01:58N 47°40' W 122°24'0 0.0
2018-Jan-06 01:28N 47°40' W 122°24'0 0.0
2018-Jan-06 00:58N 47°40' W 122°24'0 0.0
2018-Jan-06 00:28N 47°40' W 122°24'0 0.0
2018-Jan-05 23:58N 47°40' W 122°24'0 0.0
2018-Jan-05 23:28N 47°40' W 122°24'0 0.0
2018-Jan-05 22:58N 47°40' W 122°24'0 0.0
2018-Jan-05 22:28N 47°40' W 122°24'0 0.0
2018-Jan-05 21:58N 47°40' W 122°24'0 0.0
2018-Jan-05 21:28N 47°40' W 122°24'0 0.0
2018-Jan-05 20:58N 47°40' W 122°24'0 0.0
2018-Jan-05 20:28N 47°40' W 122°24'0 0.0
2018-Jan-05 19:58N 47°40' W 122°24'0 0.0
2018-Jan-05 19:25N 47°40' W 122°24'0 0.0
2018-Jan-05 18:58N 47°40' W 122°24'0 0.0
2018-Jan-05 18:28N 47°40' W 122°24'0 0.0
2018-Jan-05 17:58N 47°40' W 122°24'0 0.0
2018-Jan-05 17:28N 47°40' W 122°24'0 0.0
2018-Jan-05 16:58N 47°40' W 122°24'0 0.0
2018-Jan-05 16:28N 47°40' W 122°24'0 0.0
2018-Jan-05 15:58N 47°40' W 122°24'0 0.0
2018-Jan-05 15:28N 47°40' W 122°24'0 0.0
2018-Jan-05 14:58N 47°40' W 122°24'0 0.0
2018-Jan-05 14:28N 47°40' W 122°24'0 0.0
2018-Jan-05 13:58N 47°40' W 122°24'0 0.0
2018-Jan-05 13:28N 47°40' W 122°24'0 0.0
2018-Jan-05 12:58N 47°40' W 122°24'0 0.0
2018-Jan-05 12:28N 47°40' W 122°24'0 0.0
2018-Jan-05 11:58N 47°40' W 122°24'0 0.0
2018-Jan-05 11:28N 47°40' W 122°24'0 0.0
2018-Jan-05 10:58N 47°40' W 122°24'0 0.0
2018-Jan-05 10:28N 47°40' W 122°24'0 0.0
2018-Jan-05 09:58N 47°40' W 122°24'0 0.0
2018-Jan-05 09:25N 47°40' W 122°24'0 0.0
2018-Jan-05 08:58N 47°40' W 122°24'0 0.0
2018-Jan-05 08:28N 47°40' W 122°24'0 0.0
2018-Jan-05 07:58N 47°40' W 122°24'0 0.0
2018-Jan-05 07:28N 47°40' W 122°24'0 0.0
2018-Jan-05 06:58N 47°40' W 122°24'0 0.0
2018-Jan-05 06:28N 47°40' W 122°24'0 0.0
2018-Jan-05 05:58N 47°40' W 122°24'0 0.0
2018-Jan-05 05:28N 47°40' W 122°24'0 0.0
2018-Jan-05 04:58N 47°40' W 122°24'0 0.0
2018-Jan-05 04:28N 47°40' W 122°24'0 0.0
2018-Jan-05 03:58N 47°40' W 122°24'0 0.0
2018-Jan-05 03:28N 47°40' W 122°24'0 0.0
2018-Jan-05 02:58N 47°40' W 122°24'0 0.0
2018-Jan-05 02:28N 47°40' W 122°24'0 0.0
2018-Jan-05 01:58N 47°40' W 122°24'0 0.0
2018-Jan-05 01:28N 47°40' W 122°24'0 0.0
2018-Jan-05 00:58N 47°40' W 122°24'0 0.0
2018-Jan-05 00:28N 47°40' W 122°24'0 0.0
2018-Jan-04 23:58N 47°40' W 122°24'0 0.0
2018-Jan-04 23:28N 47°40' W 122°24'0 0.0
2018-Jan-04 22:58N 47°40' W 122°24'0 0.0
2018-Jan-04 22:25N 47°40' W 122°24'0 0.0
2018-Jan-04 21:58N 47°40' W 122°24'0 0.0
2018-Jan-04 21:28N 47°40' W 122°24'0 0.0
2018-Jan-04 20:58N 47°40' W 122°24'0 0.0
2018-Jan-04 20:28N 47°40' W 122°24'0 0.0
2018-Jan-04 19:58N 47°40' W 122°24'0 0.0
2018-Jan-04 19:28N 47°40' W 122°24'0 0.0
2018-Jan-04 18:58N 47°40' W 122°24'0 0.0
2018-Jan-04 18:28N 47°40' W 122°24'0 0.0
2018-Jan-04 17:58N 47°40' W 122°24'0 0.0
2018-Jan-04 17:28N 47°40' W 122°24'0 0.0
2018-Jan-04 16:58N 47°40' W 122°24'0 0.0
2018-Jan-04 16:28N 47°40' W 122°24'0 0.0
2018-Jan-04 15:58N 47°40' W 122°24'0 0.0
2018-Jan-04 15:28N 47°40' W 122°24'0 0.0
2018-Jan-04 14:58N 47°40' W 122°24'0 0.0
2018-Jan-04 14:28N 47°40' W 122°24'0 0.0
2018-Jan-04 13:58N 47°40' W 122°24'0 0.0
2018-Jan-04 13:28N 47°40' W 122°24'0 0.0
2018-Jan-04 12:58N 47°40' W 122°24'0 0.0
2018-Jan-04 12:28N 47°40' W 122°24'0 0.0
2018-Jan-04 11:58N 47°40' W 122°24'0 0.0
2018-Jan-04 11:28N 47°40' W 122°24'0 0.0
2018-Jan-04 10:58N 47°40' W 122°24'0 0.0
2018-Jan-04 10:28N 47°40' W 122°24'0 0.0
2018-Jan-04 09:58N 47°40' W 122°24'0 0.0
2018-Jan-04 09:28N 47°40' W 122°24'0 0.0
2018-Jan-04 08:58N 47°40' W 122°24'0 0.0
2018-Jan-04 08:28N 47°40' W 122°24'0 0.0
2018-Jan-04 07:58N 47°40' W 122°24'0 0.0
2018-Jan-04 07:28N 47°40' W 122°24'0 0.0
2018-Jan-04 06:58N 47°40' W 122°24'0 0.0
2018-Jan-04 06:28N 47°40' W 122°24'0 0.0
2018-Jan-04 05:58N 47°40' W 122°24'0 0.0
2018-Jan-04 05:28N 47°40' W 122°24'0 0.0
2018-Jan-04 04:58N 47°40' W 122°24'0 0.0
2018-Jan-04 04:28N 47°40' W 122°24'0 0.0
2018-Jan-04 03:58N 47°40' W 122°24'0 0.0
2018-Jan-04 03:28N 47°40' W 122°24'0 0.0
2018-Jan-04 02:58N 47°40' W 122°24'0 0.0
2018-Jan-04 02:28N 47°40' W 122°24'0 0.0
2018-Jan-04 01:58N 47°40' W 122°24'0 0.0
2018-Jan-04 01:28N 47°40' W 122°24'0 0.0
2018-Jan-04 00:58N 47°40' W 122°24'0 0.0
2018-Jan-04 00:28N 47°40' W 122°24'0 0.0
2018-Jan-03 23:58N 47°40' W 122°24'0 0.0
2018-Jan-03 23:28N 47°40' W 122°24'0 0.0
2018-Jan-03 22:58N 47°40' W 122°24'0 0.0
2018-Jan-03 22:28N 47°40' W 122°24'0 0.0
2018-Jan-03 21:58N 47°40' W 122°24'0 0.0
2018-Jan-03 21:28N 47°40' W 122°24'0 0.0
2018-Jan-03 20:58N 47°40' W 122°24'0 0.0
2018-Jan-03 20:28N 47°40' W 122°24'0 0.0
2018-Jan-03 19:58N 47°40' W 122°24'0 0.0
2018-Jan-03 19:28N 47°40' W 122°24'0 0.0
2018-Jan-03 18:58N 47°40' W 122°24'0 0.0
2018-Jan-03 18:28N 47°40' W 122°24'0 0.0
2018-Jan-03 17:58N 47°40' W 122°24'0 0.0
2018-Jan-03 17:28N 47°40' W 122°24'0 0.0
2018-Jan-03 16:58N 47°40' W 122°24'0 0.0
2018-Jan-03 16:28N 47°40' W 122°24'0 0.0
2018-Jan-03 15:58N 47°40' W 122°24'0 0.0
2018-Jan-03 15:28N 47°40' W 122°24'0 0.0
2018-Jan-03 14:58N 47°40' W 122°24'0 0.0
2018-Jan-03 14:28N 47°40' W 122°24'0 0.0
2018-Jan-03 13:58N 47°40' W 122°24'0 0.0
2018-Jan-03 13:28N 47°40' W 122°24'0 0.0
2018-Jan-03 12:58N 47°40' W 122°24'0 0.0
2018-Jan-03 12:28N 47°40' W 122°24'0 0.0
2018-Jan-03 11:58N 47°40' W 122°24'0 0.0
2018-Jan-03 11:28N 47°40' W 122°24'0 0.0
2018-Jan-03 10:58N 47°40' W 122°24'0 0.0
2018-Jan-03 10:28N 47°40' W 122°24'0 0.0
2018-Jan-03 09:58N 47°40' W 122°24'0 0.0
2018-Jan-03 09:28N 47°40' W 122°24'0 0.0
2018-Jan-03 08:58N 47°40' W 122°24'0 0.0
2018-Jan-03 08:28N 47°40' W 122°24'0 0.0
2018-Jan-03 07:58N 47°40' W 122°24'0 0.0
2018-Jan-03 07:28N 47°40' W 122°24'0 0.0
2018-Jan-03 06:58N 47°40' W 122°24'0 0.0
2018-Jan-03 06:28N 47°40' W 122°24'0 0.0
2018-Jan-03 05:58N 47°40' W 122°24'0 0.0
2018-Jan-03 05:28N 47°40' W 122°24'0 0.0
2018-Jan-03 04:58N 47°40' W 122°24'0 0.0
2018-Jan-03 04:28N 47°40' W 122°24'0 0.0
2018-Jan-03 03:58N 47°40' W 122°24'0 0.0
2018-Jan-03 03:28N 47°40' W 122°24'0 0.0
2018-Jan-03 02:58N 47°40' W 122°24'0 0.0
2018-Jan-03 02:28N 47°40' W 122°24'0 0.0
2018-Jan-03 01:58N 47°40' W 122°24'0 0.0
2018-Jan-03 01:28N 47°40' W 122°24'0 0.0
2018-Jan-03 00:58N 47°40' W 122°24'0 0.0
2018-Jan-03 00:28N 47°40' W 122°24'0 0.0
2018-Jan-02 23:58N 47°40' W 122°24'0 0.0
2018-Jan-02 23:28N 47°40' W 122°24'0 0.0
2018-Jan-02 22:58N 47°40' W 122°24'0 0.0
2018-Jan-02 22:28N 47°40' W 122°24'0 0.0
2018-Jan-02 21:58N 47°40' W 122°24'0 0.0
2018-Jan-02 21:28N 47°40' W 122°24'0 0.0
2018-Jan-02 20:58N 47°40' W 122°24'0 0.0
2018-Jan-02 20:28N 47°40' W 122°24'0 0.0
2018-Jan-02 19:58N 47°40' W 122°24'0 0.0
2018-Jan-02 19:28N 47°40' W 122°24'0 0.0
2018-Jan-02 18:58N 47°40' W 122°24'0 0.0
2018-Jan-02 18:28N 47°40' W 122°24'0 0.0
2018-Jan-02 17:58N 47°40' W 122°24'0 0.0
2018-Jan-02 17:28N 47°40' W 122°24'0 0.0
2018-Jan-02 16:58N 47°40' W 122°24'0 0.0
2018-Jan-02 16:28N 47°40' W 122°24'0 0.0
2018-Jan-02 15:58N 47°40' W 122°24'0 0.0
2018-Jan-02 15:28N 47°40' W 122°24'0 0.0
2018-Jan-02 14:58N 47°40' W 122°24'0 0.0
2018-Jan-02 14:28N 47°40' W 122°24'0 0.0
2018-Jan-02 13:58N 47°40' W 122°24'0 0.0
2018-Jan-02 13:28N 47°40' W 122°24'0 0.0
2018-Jan-02 12:58N 47°40' W 122°24'0 0.0
2018-Jan-02 12:28N 47°40' W 122°24'0 0.0
2018-Jan-02 11:58N 47°40' W 122°24'0 0.0
2018-Jan-02 11:28N 47°40' W 122°24'0 0.0
2018-Jan-02 10:58N 47°40' W 122°24'0 0.0
2018-Jan-02 10:28N 47°40' W 122°24'0 0.0
2018-Jan-02 09:58N 47°40' W 122°24'0 0.0
2018-Jan-02 09:28N 47°40' W 122°24'0 0.0
2018-Jan-02 08:28N 47°40' W 122°24'0 0.0
2018-Jan-02 07:59N 47°40' W 122°24'0 0.0
2018-Jan-02 07:28N 47°40' W 122°24'0 0.0
2018-Jan-02 06:59N 47°40' W 122°24'0 0.0
2018-Jan-02 06:28N 47°40' W 122°24'0 0.0
2018-Jan-02 05:58N 47°40' W 122°24'0 0.0
2018-Jan-02 05:28N 47°40' W 122°24'0 0.0
2018-Jan-02 04:28N 47°40' W 122°24'  
Track history (hours):
 
Tides and Currents Weather Stations Pressure Air Temp Water Temp Dewpoint Dewpoint Depression Visibility Wind Speed Wind Dir Waves Ship Positions

Oceanographic research ship ()

Owner: Ocean Titan Holding, LLC, Seattle, WA. More information available from US FCC via Universal Licensing System and Coast Guard Vessel Documentation Center.

Last reported at 2018-Jan-12 04:08 UTC. Time now 2018-Feb-23 17:52 UTC.
Position N 48°18' W 124°57'.
Warning: this ship's position is 42 days out of date.

Length 60 m; draft 4.6 m.

Type: Cargo ship. MMSI: 369228000.

Date/timePositionNaut miles runAvg speedWind from/ knotsBaromVisibWave heightAir tempDewpointWater temp
2018-Jan-12 04:08N 48°18' W 124°57'1 4.1
2018-Jan-12 03:55N 48°19' W 124°56'2 4.2
2018-Jan-12 03:30N 48°20' W 124°54'3 6.7
2018-Jan-12 03:00N 48°23' W 124°51'5 9.7
2018-Jan-12 02:30N 48°26' W 124°45'611.8
2018-Jan-12 02:00N 48°23' W 124°37'0 0.5
2018-Jan-12 01:30N 48°23' W 124°37'0 0.0
2018-Jan-12 01:00N 48°23' W 124°37'0 0.0
2018-Jan-12 00:30N 48°23' W 124°37'0 0.0
2018-Jan-12 00:00N 48°23' W 124°37'0 0.0
2018-Jan-11 23:30N 48°23' W 124°37'0 0.0
2018-Jan-11 23:00N 48°23' W 124°37'0 0.0
2018-Jan-11 22:30N 48°23' W 124°37'0 0.0
2018-Jan-11 22:00N 48°23' W 124°37'0 0.2
2018-Jan-11 21:30N 48°23' W 124°37'0 0.9
2018-Jan-11 21:00N 48°23' W 124°37'3 6.2
2018-Jan-11 20:30N 48°25' W 124°41'4 8.7
2018-Jan-11 20:00N 48°25' W 124°48'510.0
2018-Jan-11 19:30N 48°21' W 124°53'16 1.8
2018-Jan-11 10:43N 48°10' W 125°10'  
2018-Jan-08 16:06N 48°30' W 124°60'2 9.1
2018-Jan-08 15:53N 48°31' W 124°57'4 9.6
2018-Jan-08 15:30N 48°31' W 124°51'5 9.4
2018-Jan-08 15:00N 48°30' W 124°44'4 8.8
2018-Jan-08 14:30N 48°30' W 124°38'4 8.6
2018-Jan-08 14:00N 48°28' W 124°32'5 9.6
2018-Jan-08 13:30N 48°26' W 124°25'510.3
2018-Jan-08 13:00N 48°24' W 124°18'510.1
2018-Jan-08 12:30N 48°22' W 124°11'510.1
2018-Jan-08 12:00N 48°20' W 124°04'510.6
2018-Jan-08 11:30N 48°18' W 123°56'511.0
2018-Jan-08 11:00N 48°17' W 123°48'612.2
2018-Jan-08 10:30N 48°16' W 123°39'612.9
2018-Jan-08 10:00N 48°15' W 123°30'612.6
2018-Jan-08 09:30N 48°14' W 123°20'612.4
2018-Jan-08 09:00N 48°14' W 123°11'612.4
2018-Jan-08 08:30N 48°13' W 123°02'712.7
2018-Jan-08 07:59N 48°12' W 122°52'712.8
2018-Jan-08 07:27N 48°09' W 122°43'712.5
2018-Jan-08 06:53N 48°03' W 122°38'513.0
2018-Jan-08 06:30N 47°59' W 122°35'611.9
2018-Jan-08 06:00N 47°54' W 122°29'612.0
2018-Jan-08 05:30N 47°48' W 122°27'5 9.8
2018-Jan-08 05:00N 47°44' W 122°29'1 2.0
2018-Jan-08 04:30N 47°44' W 122°31'2 3.5
2018-Jan-08 04:00N 47°43' W 122°28'0 0.2
2018-Jan-08 03:31N 47°43' W 122°28'0 0.5
2018-Jan-08 03:00N 47°42' W 122°28'0 0.3
2018-Jan-08 02:30N 47°43' W 122°28'0 0.2
2018-Jan-08 02:00N 47°43' W 122°28'0 0.0
2018-Jan-08 01:30N 47°43' W 122°28'0 0.4
2018-Jan-08 01:00N 47°43' W 122°28'1 2.2
2018-Jan-08 00:30N 47°42' W 122°27'3 5.6
2018-Jan-08 00:00N 47°40' W 122°24'0 0.5
2018-Jan-07 23:29N 47°40' W 122°24'0 0.0
2018-Jan-07 22:59N 47°40' W 122°24'0 0.0
2018-Jan-07 22:29N 47°40' W 122°24'0 0.0
2018-Jan-07 21:59N 47°40' W 122°24'0 0.0
2018-Jan-07 21:29N 47°40' W 122°24'0 0.0
2018-Jan-07 20:59N 47°40' W 122°24'0 0.0
2018-Jan-07 20:26N 47°40' W 122°24'0 0.0
2018-Jan-07 19:59N 47°40' W 122°24'0 0.0
2018-Jan-07 19:29N 47°40' W 122°24'0 0.0
2018-Jan-07 18:59N 47°40' W 122°24'0 0.0
2018-Jan-07 18:29N 47°40' W 122°24'0 0.0
2018-Jan-07 17:59N 47°40' W 122°24'0 0.0
2018-Jan-07 17:29N 47°40' W 122°24'0 0.0
2018-Jan-07 16:59N 47°40' W 122°24'0 0.0
2018-Jan-07 16:29N 47°40' W 122°24'0 0.0
2018-Jan-07 15:59N 47°40' W 122°24'0 0.0
2018-Jan-07 15:29N 47°40' W 122°24'9124.7
2018-Jan-07 11:47N 49°11' W 122°24'3 8.6
2018-Jan-07 11:29N 49°09' W 122°24'32 8.6
2018-Jan-07 07:47N 48°37' W 122°24'16 8.6
2018-Jan-07 05:56N 48°21' W 122°24'4 8.6
2018-Jan-07 05:29N 48°17' W 122°24'4 8.6
2018-Jan-07 04:59N 48°13' W 122°24'4 8.6
2018-Jan-07 04:29N 48°09' W 122°24'4 8.6
2018-Jan-07 03:59N 48°04' W 122°24'4 8.6
2018-Jan-07 03:29N 47°60' W 122°24'4 8.6
2018-Jan-07 02:59N 47°56' W 122°24'4 8.6
2018-Jan-07 02:29N 47°51' W 122°24'4 8.6
2018-Jan-07 01:59N 47°47' W 122°24'4 8.6
2018-Jan-07 01:29N 47°43' W 122°24'3 2.8
2018-Jan-07 00:29N 47°40' W 122°24'0 0.0
2018-Jan-06 23:59N 47°40' W 122°24'0 0.0
2018-Jan-06 23:29N 47°40' W 122°24'0 0.0
2018-Jan-06 22:59N 47°40' W 122°24'0 0.0
2018-Jan-06 22:29N 47°40' W 122°24'0 0.0
2018-Jan-06 21:59N 47°40' W 122°24'0 0.0
2018-Jan-06 21:29N 47°40' W 122°24'0 0.0
2018-Jan-06 20:59N 47°40' W 122°24'0 0.0
2018-Jan-06 20:29N 47°40' W 122°24'0 0.0
2018-Jan-06 19:59N 47°40' W 122°24'0 0.0
2018-Jan-06 19:29N 47°40' W 122°24'0 0.0
2018-Jan-06 18:59N 47°40' W 122°24'0 0.0
2018-Jan-06 18:29N 47°40' W 122°24'0 0.0
2018-Jan-06 17:59N 47°40' W 122°24'0 0.0
2018-Jan-06 17:29N 47°40' W 122°24'0 0.0
2018-Jan-06 16:59N 47°40' W 122°24'0 0.0
2018-Jan-06 16:29N 47°40' W 122°24'0 0.0
2018-Jan-06 15:59N 47°40' W 122°24'0 0.0
2018-Jan-06 15:29N 47°40' W 122°24'0 0.0
2018-Jan-06 14:59N 47°40' W 122°24'0 0.0
2018-Jan-06 14:29N 47°40' W 122°24'0 0.0
2018-Jan-06 13:59N 47°40' W 122°24'0 0.0
2018-Jan-06 13:29N 47°40' W 122°24'0 0.0
2018-Jan-06 12:59N 47°40' W 122°24'0 0.0
2018-Jan-06 12:29N 47°40' W 122°24'0 0.0
2018-Jan-06 11:58N 47°40' W 122°24'0 0.0
2018-Jan-06 11:28N 47°40' W 122°24'0 0.0
2018-Jan-06 10:58N 47°40' W 122°24'0 0.0
2018-Jan-06 10:28N 47°40' W 122°24'0 0.0
2018-Jan-06 09:58N 47°40' W 122°24'0 0.0
2018-Jan-06 09:28N 47°40' W 122°24'0 0.0
2018-Jan-06 08:58N 47°40' W 122°24'0 0.0
2018-Jan-06 08:28N 47°40' W 122°24'0 0.0
2018-Jan-06 07:58N 47°40' W 122°24'0 0.0
2018-Jan-06 07:28N 47°40' W 122°24'0 0.0
2018-Jan-06 06:58N 47°40' W 122°24'0 0.0
2018-Jan-06 06:28N 47°40' W 122°24'0 0.0
2018-Jan-06 05:58N 47°40' W 122°24'0 0.0
2018-Jan-06 05:28N 47°40' W 122°24'0 0.0
2018-Jan-06 04:58N 47°40' W 122°24'0 0.0
2018-Jan-06 04:25N 47°40' W 122°24'0 0.0
2018-Jan-06 03:58N 47°40' W 122°24'0 0.0
2018-Jan-06 03:28N 47°40' W 122°24'0 0.0
2018-Jan-06 02:58N 47°40' W 122°24'0 0.0
2018-Jan-06 02:28N 47°40' W 122°24'0 0.0
2018-Jan-06 01:58N 47°40' W 122°24'0 0.0
2018-Jan-06 01:28N 47°40' W 122°24'0 0.0
2018-Jan-06 00:58N 47°40' W 122°24'0 0.0
2018-Jan-06 00:28N 47°40' W 122°24'0 0.0
2018-Jan-05 23:58N 47°40' W 122°24'0 0.0
2018-Jan-05 23:28N 47°40' W 122°24'0 0.0
2018-Jan-05 22:58N 47°40' W 122°24'0 0.0
2018-Jan-05 22:28N 47°40' W 122°24'0 0.0
2018-Jan-05 21:58N 47°40' W 122°24'0 0.0
2018-Jan-05 21:28N 47°40' W 122°24'0 0.0
2018-Jan-05 20:58N 47°40' W 122°24'0 0.0
2018-Jan-05 20:28N 47°40' W 122°24'0 0.0
2018-Jan-05 19:58N 47°40' W 122°24'0 0.0
2018-Jan-05 19:25N 47°40' W 122°24'0 0.0
2018-Jan-05 18:58N 47°40' W 122°24'0 0.0
2018-Jan-05 18:28N 47°40' W 122°24'0 0.0
2018-Jan-05 17:58N 47°40' W 122°24'0 0.0
2018-Jan-05 17:28N 47°40' W 122°24'0 0.0
2018-Jan-05 16:58N 47°40' W 122°24'0 0.0
2018-Jan-05 16:28N 47°40' W 122°24'0 0.0
2018-Jan-05 15:58N 47°40' W 122°24'0 0.0
2018-Jan-05 15:28N 47°40' W 122°24'0 0.0
2018-Jan-05 14:58N 47°40' W 122°24'0 0.0
2018-Jan-05 14:28N 47°40' W 122°24'0 0.0
2018-Jan-05 13:58N 47°40' W 122°24'0 0.0
2018-Jan-05 13:28N 47°40' W 122°24'0 0.0
2018-Jan-05 12:58N 47°40' W 122°24'0 0.0
2018-Jan-05 12:28N 47°40' W 122°24'0 0.0
2018-Jan-05 11:58N 47°40' W 122°24'0 0.0
2018-Jan-05 11:28N 47°40' W 122°24'0 0.0
2018-Jan-05 10:58N 47°40' W 122°24'0 0.0
2018-Jan-05 10:28N 47°40' W 122°24'0 0.0
2018-Jan-05 09:58N 47°40' W 122°24'0 0.0
2018-Jan-05 09:25N 47°40' W 122°24'0 0.0
2018-Jan-05 08:58N 47°40' W 122°24'0 0.0
2018-Jan-05 08:28N 47°40' W 122°24'0 0.0
2018-Jan-05 07:58N 47°40' W 122°24'0 0.0
2018-Jan-05 07:28N 47°40' W 122°24'0 0.0
2018-Jan-05 06:58N 47°40' W 122°24'0 0.0
2018-Jan-05 06:28N 47°40' W 122°24'0 0.0
2018-Jan-05 05:58N 47°40' W 122°24'0 0.0
2018-Jan-05 05:28N 47°40' W 122°24'0 0.0
2018-Jan-05 04:58N 47°40' W 122°24'0 0.0
2018-Jan-05 04:28N 47°40' W 122°24'0 0.0
2018-Jan-05 03:58N 47°40' W 122°24'0 0.0
2018-Jan-05 03:28N 47°40' W 122°24'0 0.0
2018-Jan-05 02:58N 47°40' W 122°24'0 0.0
2018-Jan-05 02:28N 47°40' W 122°24'0 0.0
2018-Jan-05 01:58N 47°40' W 122°24'0 0.0
2018-Jan-05 01:28N 47°40' W 122°24'0 0.0
2018-Jan-05 00:58N 47°40' W 122°24'0 0.0
2018-Jan-05 00:28N 47°40' W 122°24'0 0.0
2018-Jan-04 23:58N 47°40' W 122°24'0 0.0
2018-Jan-04 23:28N 47°40' W 122°24'0 0.0
2018-Jan-04 22:58N 47°40' W 122°24'0 0.0
2018-Jan-04 22:25N 47°40' W 122°24'0 0.0
2018-Jan-04 21:58N 47°40' W 122°24'0 0.0
2018-Jan-04 21:28N 47°40' W 122°24'0 0.0
2018-Jan-04 20:58N 47°40' W 122°24'0 0.0
2018-Jan-04 20:28N 47°40' W 122°24'0 0.0
2018-Jan-04 19:58N 47°40' W 122°24'0 0.0
2018-Jan-04 19:28N 47°40' W 122°24'0 0.0
2018-Jan-04 18:58N 47°40' W 122°24'0 0.0
2018-Jan-04 18:28N 47°40' W 122°24'0 0.0
2018-Jan-04 17:58N 47°40' W 122°24'0 0.0
2018-Jan-04 17:28N 47°40' W 122°24'0 0.0
2018-Jan-04 16:58N 47°40' W 122°24'0 0.0
2018-Jan-04 16:28N 47°40' W 122°24'0 0.0
2018-Jan-04 15:58N 47°40' W 122°24'0 0.0
2018-Jan-04 15:28N 47°40' W 122°24'0 0.0
2018-Jan-04 14:58N 47°40' W 122°24'0 0.0
2018-Jan-04 14:28N 47°40' W 122°24'0 0.0
2018-Jan-04 13:58N 47°40' W 122°24'0 0.0
2018-Jan-04 13:28N 47°40' W 122°24'0 0.0
2018-Jan-04 12:58N 47°40' W 122°24'0 0.0
2018-Jan-04 12:28N 47°40' W 122°24'0 0.0
2018-Jan-04 11:58N 47°40' W 122°24'0 0.0
2018-Jan-04 11:28N 47°40' W 122°24'0 0.0
2018-Jan-04 10:58N 47°40' W 122°24'0 0.0
2018-Jan-04 10:28N 47°40' W 122°24'0 0.0
2018-Jan-04 09:58N 47°40' W 122°24'0 0.0
2018-Jan-04 09:28N 47°40' W 122°24'0 0.0
2018-Jan-04 08:58N 47°40' W 122°24'0 0.0
2018-Jan-04 08:28N 47°40' W 122°24'0 0.0
2018-Jan-04 07:58N 47°40' W 122°24'0 0.0
2018-Jan-04 07:28N 47°40' W 122°24'0 0.0
2018-Jan-04 06:58N 47°40' W 122°24'0 0.0
2018-Jan-04 06:28N 47°40' W 122°24'0 0.0
2018-Jan-04 05:58N 47°40' W 122°24'0 0.0
2018-Jan-04 05:28N 47°40' W 122°24'0 0.0
2018-Jan-04 04:58N 47°40' W 122°24'0 0.0
2018-Jan-04 04:28N 47°40' W 122°24'0 0.0
2018-Jan-04 03:58N 47°40' W 122°24'0 0.0
2018-Jan-04 03:28N 47°40' W 122°24'0 0.0
2018-Jan-04 02:58N 47°40' W 122°24'0 0.0
2018-Jan-04 02:28N 47°40' W 122°24'0 0.0
2018-Jan-04 01:58N 47°40' W 122°24'0 0.0
2018-Jan-04 01:28N 47°40' W 122°24'0 0.0
2018-Jan-04 00:58N 47°40' W 122°24'0 0.0
2018-Jan-04 00:28N 47°40' W 122°24'0 0.0
2018-Jan-03 23:58N 47°40' W 122°24'0 0.0
2018-Jan-03 23:28N 47°40' W 122°24'0 0.0
2018-Jan-03 22:58N 47°40' W 122°24'0 0.0
2018-Jan-03 22:28N 47°40' W 122°24'0 0.0
2018-Jan-03 21:58N 47°40' W 122°24'0 0.0
2018-Jan-03 21:28N 47°40' W 122°24'0 0.0
2018-Jan-03 20:58N 47°40' W 122°24'0 0.0
2018-Jan-03 20:28N 47°40' W 122°24'0 0.0
2018-Jan-03 19:58N 47°40' W 122°24'0 0.0
2018-Jan-03 19:28N 47°40' W 122°24'0 0.0
2018-Jan-03 18:58N 47°40' W 122°24'0 0.0
2018-Jan-03 18:28N 47°40' W 122°24'0 0.0
2018-Jan-03 17:58N 47°40' W 122°24'0 0.0
2018-Jan-03 17:28N 47°40' W 122°24'0 0.0
2018-Jan-03 16:58N 47°40' W 122°24'0 0.0
2018-Jan-03 16:28N 47°40' W 122°24'0 0.0
2018-Jan-03 15:58N 47°40' W 122°24'0 0.0
2018-Jan-03 15:28N 47°40' W 122°24'0 0.0
2018-Jan-03 14:58N 47°40' W 122°24'0 0.0
2018-Jan-03 14:28N 47°40' W 122°24'0 0.0
2018-Jan-03 13:58N 47°40' W 122°24'0 0.0
2018-Jan-03 13:28N 47°40' W 122°24'0 0.0
2018-Jan-03 12:58N 47°40' W 122°24'0 0.0
2018-Jan-03 12:28N 47°40' W 122°24'0 0.0
2018-Jan-03 11:58N 47°40' W 122°24'0 0.0
2018-Jan-03 11:28N 47°40' W 122°24'0 0.0
2018-Jan-03 10:58N 47°40' W 122°24'0 0.0
2018-Jan-03 10:28N 47°40' W 122°24'0 0.0
2018-Jan-03 09:58N 47°40' W 122°24'0 0.0
2018-Jan-03 09:28N 47°40' W 122°24'0 0.0
2018-Jan-03 08:58N 47°40' W 122°24'0 0.0
2018-Jan-03 08:28N 47°40' W 122°24'0 0.0
2018-Jan-03 07:58N 47°40' W 122°24'0 0.0
2018-Jan-03 07:28N 47°40' W 122°24'0 0.0
2018-Jan-03 06:58N 47°40' W 122°24'0 0.0
2018-Jan-03 06:28N 47°40' W 122°24'0 0.0
2018-Jan-03 05:58N 47°40' W 122°24'0 0.0
2018-Jan-03 05:28N 47°40' W 122°24'0 0.0
2018-Jan-03 04:58N 47°40' W 122°24'0 0.0
2018-Jan-03 04:28N 47°40' W 122°24'0 0.0
2018-Jan-03 03:58N 47°40' W 122°24'0 0.0
2018-Jan-03 03:28N 47°40' W 122°24'0 0.0
2018-Jan-03 02:58N 47°40' W 122°24'0 0.0
2018-Jan-03 02:28N 47°40' W 122°24'0 0.0
2018-Jan-03 01:58N 47°40' W 122°24'0 0.0
2018-Jan-03 01:28N 47°40' W 122°24'0 0.0
2018-Jan-03 00:58N 47°40' W 122°24'0 0.0
2018-Jan-03 00:28N 47°40' W 122°24'0 0.0
2018-Jan-02 23:58N 47°40' W 122°24'0 0.0
2018-Jan-02 23:28N 47°40' W 122°24'0 0.0
2018-Jan-02 22:58N 47°40' W 122°24'0 0.0
2018-Jan-02 22:28N 47°40' W 122°24'0 0.0
2018-Jan-02 21:58N 47°40' W 122°24'0 0.0
2018-Jan-02 21:28N 47°40' W 122°24'0 0.0
2018-Jan-02 20:58N 47°40' W 122°24'0 0.0
2018-Jan-02 20:28N 47°40' W 122°24'0 0.0
2018-Jan-02 19:58N 47°40' W 122°24'0 0.0
2018-Jan-02 19:28N 47°40' W 122°24'0 0.0
2018-Jan-02 18:58N 47°40' W 122°24'0 0.0
2018-Jan-02 18:28N 47°40' W 122°24'0 0.0
2018-Jan-02 17:58N 47°40' W 122°24'0 0.0
2018-Jan-02 17:28N 47°40' W 122°24'0 0.0
2018-Jan-02 16:58N 47°40' W 122°24'0 0.0
2018-Jan-02 16:28N 47°40' W 122°24'0 0.0
2018-Jan-02 15:58N 47°40' W 122°24'0 0.0
2018-Jan-02 15:28N 47°40' W 122°24'0 0.0
2018-Jan-02 14:58N 47°40' W 122°24'0 0.0
2018-Jan-02 14:28N 47°40' W 122°24'0 0.0
2018-Jan-02 13:58N 47°40' W 122°24'0 0.0
2018-Jan-02 13:28N 47°40' W 122°24'0 0.0
2018-Jan-02 12:58N 47°40' W 122°24'0 0.0
2018-Jan-02 12:28N 47°40' W 122°24'0 0.0
2018-Jan-02 11:58N 47°40' W 122°24'0 0.0
2018-Jan-02 11:28N 47°40' W 122°24'0 0.0
2018-Jan-02 10:58N 47°40' W 122°24'0 0.0
2018-Jan-02 10:28N 47°40' W 122°24'0 0.0
2018-Jan-02 09:58N 47°40' W 122°24'0 0.0
2018-Jan-02 09:28N 47°40' W 122°24'0 0.0
2018-Jan-02 08:28N 47°40' W 122°24'0 0.0
2018-Jan-02 07:59N 47°40' W 122°24'0 0.0
2018-Jan-02 07:28N 47°40' W 122°24'0 0.0
2018-Jan-02 06:59N 47°40' W 122°24'0 0.0
2018-Jan-02 06:28N 47°40' W 122°24'0 0.0
2018-Jan-02 05:58N 47°40' W 122°24'0 0.0
2018-Jan-02 05:28N 47°40' W 122°24'0 0.0
2018-Jan-02 04:28N 47°40' W 122°24'  

Dump ship's entire track history